sensor_id;sensor_type;location;lat;lon;timestamp;temperature;humidity
32660;DHT22;19064;47.912;12.308;2022-10-16T00:01:40;13.60;99.90
32660;DHT22;19064;47.912;12.308;2022-10-16T00:04:08;13.50;99.90
32660;DHT22;19064;47.912;12.308;2022-10-16T00:06:36;13.50;99.90
32660;DHT22;19064;47.912;12.308;2022-10-16T00:09:05;13.40;99.90
32660;DHT22;19064;47.912;12.308;2022-10-16T00:11:35;13.30;99.90
32660;DHT22;19064;47.912;12.308;2022-10-16T00:14:07;13.30;99.90
32660;DHT22;19064;47.912;12.308;2022-10-16T00:16:38;13.20;99.90
32660;DHT22;19064;47.912;12.308;2022-10-16T00:19:06;13.20;99.90
32660;DHT22;19064;47.912;12.308;2022-10-16T00:21:34;13.10;99.90
32660;DHT22;19064;47.912;12.308;2022-10-16T00:24:04;13.10;99.90
32660;DHT22;19064;47.912;12.308;2022-10-16T00:26:36;13.10;99.90
32660;DHT22;19064;47.912;12.308;2022-10-16T00:29:05;13.10;99.90
32660;DHT22;19064;47.912;12.308;2022-10-16T00:31:33;13.00;99.90
32660;DHT22;19064;47.912;12.308;2022-10-16T00:34:01;12.90;99.90
32660;DHT22;19064;47.912;12.308;2022-10-16T00:36:29;12.80;99.90
32660;DHT22;19064;47.912;12.308;2022-10-16T00:38:58;12.80;99.90
32660;DHT22;19064;47.912;12.308;2022-10-16T00:41:28;12.80;99.90
32660;DHT22;19064;47.912;12.308;2022-10-16T00:43:58;12.80;99.90
32660;DHT22;19064;47.912;12.308;2022-10-16T00:46:29;12.80;99.90
32660;DHT22;19064;47.912;12.308;2022-10-16T00:49:01;12.70;99.90
32660;DHT22;19064;47.912;12.308;2022-10-16T00:51:33;12.70;99.90
32660;DHT22;19064;47.912;12.308;2022-10-16T00:54:02;12.60;99.90
32660;DHT22;19064;47.912;12.308;2022-10-16T00:56:32;12.60;99.90
32660;DHT22;19064;47.912;12.308;2022-10-16T00:59:03;12.60;99.90
32660;DHT22;19064;47.912;12.308;2022-10-16T01:01:32;12.60;99.90
32660;DHT22;19064;47.912;12.308;2022-10-16T01:04:00;12.50;99.90
32660;DHT22;19064;47.912;12.308;2022-10-16T01:06:35;12.50;99.90
32660;DHT22;19064;47.912;12.308;2022-10-16T01:09:16;12.60;99.90
32660;DHT22;19064;47.912;12.308;2022-10-16T01:11:55;12.40;99.90
32660;DHT22;19064;47.912;12.308;2022-10-16T01:14:34;12.40;99.90
32660;DHT22;19064;47.912;12.308;2022-10-16T01:17:10;12.30;99.90
32660;DHT22;19064;47.912;12.308;2022-10-16T01:19:57;12.40;99.90
32660;DHT22;19064;47.912;12.308;2022-10-16T01:22:39;12.30;99.90
32660;DHT22;19064;47.912;12.308;2022-10-16T01:25:14;12.30;99.90
32660;DHT22;19064;47.912;12.308;2022-10-16T01:27:46;12.30;99.90
32660;DHT22;19064;47.912;12.308;2022-10-16T01:30:18;12.30;99.90
32660;DHT22;19064;47.912;12.308;2022-10-16T01:32:51;12.40;99.90
32660;DHT22;19064;47.912;12.308;2022-10-16T01:35:23;12.40;99.90
32660;DHT22;19064;47.912;12.308;2022-10-16T01:37:57;12.50;99.90
32660;DHT22;19064;47.912;12.308;2022-10-16T01:40:28;12.50;99.90
32660;DHT22;19064;47.912;12.308;2022-10-16T01:43:00;12.50;99.90
32660;DHT22;19064;47.912;12.308;2022-10-16T01:45:31;12.50;99.90
32660;DHT22;19064;47.912;12.308;2022-10-16T01:48:01;12.60;99.90
32660;DHT22;19064;47.912;12.308;2022-10-16T01:50:31;12.60;99.90
32660;DHT22;19064;47.912;12.308;2022-10-16T01:53:02;12.70;99.90
32660;DHT22;19064;47.912;12.308;2022-10-16T01:55:36;12.70;99.90
32660;DHT22;19064;47.912;12.308;2022-10-16T01:58:08;12.60;99.90
32660;DHT22;19064;47.912;12.308;2022-10-16T02:00:37;12.50;99.90
32660;DHT22;19064;47.912;12.308;2022-10-16T02:03:06;12.50;99.90
32660;DHT22;19064;47.912;12.308;2022-10-16T02:05:39;12.50;99.90
32660;DHT22;19064;47.912;12.308;2022-10-16T02:08:08;12.60;99.90
32660;DHT22;19064;47.912;12.308;2022-10-16T02:10:37;12.70;99.90
32660;DHT22;19064;47.912;12.308;2022-10-16T02:13:10;12.70;99.90
32660;DHT22;19064;47.912;12.308;2022-10-16T02:15:39;12.80;99.90
32660;DHT22;19064;47.912;12.308;2022-10-16T02:18:08;12.70;99.90
32660;DHT22;19064;47.912;12.308;2022-10-16T02:20:42;12.70;99.90
32660;DHT22;19064;47.912;12.308;2022-10-16T02:23:19;12.60;99.90
32660;DHT22;19064;47.912;12.308;2022-10-16T02:25:50;12.50;99.90
32660;DHT22;19064;47.912;12.308;2022-10-16T02:28:25;12.50;99.90
32660;DHT22;19064;47.912;12.308;2022-10-16T02:30:58;12.50;99.90
32660;DHT22;19064;47.912;12.308;2022-10-16T02:33:28;12.30;99.90
32660;DHT22;19064;47.912;12.308;2022-10-16T02:35:57;12.20;99.90
32660;DHT22;19064;47.912;12.308;2022-10-16T02:38:26;12.20;99.90
32660;DHT22;19064;47.912;12.308;2022-10-16T02:40:55;12.20;99.90
32660;DHT22;19064;47.912;12.308;2022-10-16T02:43:24;12.20;99.90
32660;DHT22;19064;47.912;12.308;2022-10-16T02:45:54;12.10;99.90
32660;DHT22;19064;47.912;12.308;2022-10-16T02:48:22;12.10;99.90
32660;DHT22;19064;47.912;12.308;2022-10-16T02:50:50;12.30;99.90
32660;DHT22;19064;47.912;12.308;2022-10-16T02:53:18;12.30;99.90
32660;DHT22;19064;47.912;12.308;2022-10-16T02:55:46;12.40;99.90
32660;DHT22;19064;47.912;12.308;2022-10-16T02:58:14;12.40;99.90
32660;DHT22;19064;47.912;12.308;2022-10-16T03:00:44;12.40;99.90
32660;DHT22;19064;47.912;12.308;2022-10-16T03:03:12;12.30;99.90
32660;DHT22;19064;47.912;12.308;2022-10-16T03:05:42;12.40;99.90
32660;DHT22;19064;47.912;12.308;2022-10-16T03:08:10;12.40;99.90
32660;DHT22;19064;47.912;12.308;2022-10-16T03:10:37;12.40;99.90
32660;DHT22;19064;47.912;12.308;2022-10-16T03:13:05;12.40;99.90
32660;DHT22;19064;47.912;12.308;2022-10-16T03:15:44;12.40;99.90
32660;DHT22;19064;47.912;12.308;2022-10-16T03:18:12;12.40;99.90
32660;DHT22;19064;47.912;12.308;2022-10-16T03:20:40;12.40;99.90
32660;DHT22;19064;47.912;12.308;2022-10-16T03:23:08;12.50;99.90
32660;DHT22;19064;47.912;12.308;2022-10-16T03:25:36;12.60;99.90
32660;DHT22;19064;47.912;12.308;2022-10-16T03:28:04;12.70;99.90
32660;DHT22;19064;47.912;12.308;2022-10-16T03:30:32;12.70;99.90
32660;DHT22;19064;47.912;12.308;2022-10-16T03:33:03;12.70;99.90
32660;DHT22;19064;47.912;12.308;2022-10-16T03:35:31;12.70;99.90
32660;DHT22;19064;47.912;12.308;2022-10-16T03:38:00;12.60;99.90
32660;DHT22;19064;47.912;12.308;2022-10-16T03:40:30;12.60;99.90
32660;DHT22;19064;47.912;12.308;2022-10-16T03:43:00;12.60;99.90
32660;DHT22;19064;47.912;12.308;2022-10-16T03:45:28;12.60;99.90
32660;DHT22;19064;47.912;12.308;2022-10-16T03:47:57;12.70;99.90
32660;DHT22;19064;47.912;12.308;2022-10-16T03:50:26;12.80;99.90
32660;DHT22;19064;47.912;12.308;2022-10-16T03:52:55;12.90;99.90
32660;DHT22;19064;47.912;12.308;2022-10-16T03:55:23;12.90;99.90
32660;DHT22;19064;47.912;12.308;2022-10-16T03:57:53;13.00;99.90
32660;DHT22;19064;47.912;12.308;2022-10-16T04:00:21;13.10;99.90
32660;DHT22;19064;47.912;12.308;2022-10-16T04:02:49;13.30;99.90
32660;DHT22;19064;47.912;12.308;2022-10-16T04:05:17;13.40;99.90
32660;DHT22;19064;47.912;12.308;2022-10-16T04:07:46;13.40;99.90
32660;DHT22;19064;47.912;12.308;2022-10-16T04:10:14;13.40;99.90
32660;DHT22;19064;47.912;12.308;2022-10-16T04:12:42;13.30;99.90
32660;DHT22;19064;47.912;12.308;2022-10-16T04:15:10;13.20;99.90
32660;DHT22;19064;47.912;12.308;2022-10-16T04:17:38;13.10;99.90
32660;DHT22;19064;47.912;12.308;2022-10-16T04:20:07;13.10;99.90
32660;DHT22;19064;47.912;12.308;2022-10-16T04:22:33;13.10;99.90
32660;DHT22;19064;47.912;12.308;2022-10-16T04:25:03;13.00;99.90
32660;DHT22;19064;47.912;12.308;2022-10-16T04:27:31;13.00;99.90
32660;DHT22;19064;47.912;12.308;2022-10-16T04:29:59;13.00;99.90
32660;DHT22;19064;47.912;12.308;2022-10-16T04:32:28;13.00;99.90
32660;DHT22;19064;47.912;12.308;2022-10-16T04:34:56;12.80;99.90
32660;DHT22;19064;47.912;12.308;2022-10-16T04:37:24;12.70;99.90
32660;DHT22;19064;47.912;12.308;2022-10-16T04:39:53;12.60;99.90
32660;DHT22;19064;47.912;12.308;2022-10-16T04:42:22;12.60;99.90
32660;DHT22;19064;47.912;12.308;2022-10-16T04:44:50;12.60;99.90
32660;DHT22;19064;47.912;12.308;2022-10-16T04:47:18;12.60;99.90
32660;DHT22;19064;47.912;12.308;2022-10-16T04:49:46;12.60;99.90
32660;DHT22;19064;47.912;12.308;2022-10-16T04:52:14;12.50;99.90
32660;DHT22;19064;47.912;12.308;2022-10-16T04:54:43;12.40;99.90
32660;DHT22;19064;47.912;12.308;2022-10-16T04:57:12;12.20;99.90
32660;DHT22;19064;47.912;12.308;2022-10-16T04:59:41;12.10;99.90
32660;DHT22;19064;47.912;12.308;2022-10-16T05:02:09;12.20;99.90
32660;DHT22;19064;47.912;12.308;2022-10-16T05:04:38;12.10;99.90
32660;DHT22;19064;47.912;12.308;2022-10-16T05:07:06;12.10;99.90
32660;DHT22;19064;47.912;12.308;2022-10-16T05:09:36;12.00;99.90
32660;DHT22;19064;47.912;12.308;2022-10-16T05:12:04;12.00;99.90
32660;DHT22;19064;47.912;12.308;2022-10-16T05:14:32;12.00;99.90
32660;DHT22;19064;47.912;12.308;2022-10-16T05:17:01;12.00;99.90
32660;DHT22;19064;47.912;12.308;2022-10-16T05:19:30;12.00;99.90
32660;DHT22;19064;47.912;12.308;2022-10-16T05:21:58;12.10;99.90
32660;DHT22;19064;47.912;12.308;2022-10-16T05:24:26;12.30;99.90
32660;DHT22;19064;47.912;12.308;2022-10-16T05:26:54;12.50;99.90
32660;DHT22;19064;47.912;12.308;2022-10-16T05:29:22;12.60;99.90
32660;DHT22;19064;47.912;12.308;2022-10-16T05:31:51;12.60;99.90
32660;DHT22;19064;47.912;12.308;2022-10-16T05:34:20;12.60;99.90
32660;DHT22;19064;47.912;12.308;2022-10-16T05:36:48;12.60;99.90
32660;DHT22;19064;47.912;12.308;2022-10-16T05:39:16;12.70;99.90
32660;DHT22;19064;47.912;12.308;2022-10-16T05:41:45;12.80;99.90
32660;DHT22;19064;47.912;12.308;2022-10-16T05:44:13;12.70;99.90
32660;DHT22;19064;47.912;12.308;2022-10-16T05:46:46;12.70;99.90
32660;DHT22;19064;47.912;12.308;2022-10-16T05:49:14;12.70;99.90
32660;DHT22;19064;47.912;12.308;2022-10-16T05:51:43;12.70;99.90
32660;DHT22;19064;47.912;12.308;2022-10-16T05:54:11;12.80;99.90
32660;DHT22;19064;47.912;12.308;2022-10-16T05:56:41;13.00;99.90
32660;DHT22;19064;47.912;12.308;2022-10-16T05:59:09;13.00;99.90
32660;DHT22;19064;47.912;12.308;2022-10-16T06:01:37;13.00;99.90
32660;DHT22;19064;47.912;12.308;2022-10-16T06:04:05;13.00;99.90
32660;DHT22;19064;47.912;12.308;2022-10-16T06:06:33;13.10;99.90
32660;DHT22;19064;47.912;12.308;2022-10-16T06:09:04;13.20;99.90
32660;DHT22;19064;47.912;12.308;2022-10-16T06:11:33;13.20;99.90
32660;DHT22;19064;47.912;12.308;2022-10-16T06:14:02;13.10;99.90
32660;DHT22;19064;47.912;12.308;2022-10-16T06:16:34;13.10;99.90
32660;DHT22;19064;47.912;12.308;2022-10-16T06:19:02;13.30;99.90
32660;DHT22;19064;47.912;12.308;2022-10-16T06:21:32;13.50;99.90
32660;DHT22;19064;47.912;12.308;2022-10-16T06:24:00;13.70;99.90
32660;DHT22;19064;47.912;12.308;2022-10-16T06:26:30;13.80;99.90
32660;DHT22;19064;47.912;12.308;2022-10-16T06:28:59;13.90;99.90
32660;DHT22;19064;47.912;12.308;2022-10-16T06:31:28;13.90;99.90
32660;DHT22;19064;47.912;12.308;2022-10-16T06:33:58;13.90;99.90
32660;DHT22;19064;47.912;12.308;2022-10-16T06:36:26;13.90;99.90
32660;DHT22;19064;47.912;12.308;2022-10-16T06:38:54;14.00;99.90
32660;DHT22;19064;47.912;12.308;2022-10-16T06:41:23;14.10;99.90
32660;DHT22;19064;47.912;12.308;2022-10-16T06:43:52;14.10;99.90
32660;DHT22;19064;47.912;12.308;2022-10-16T06:46:22;14.00;99.90
32660;DHT22;19064;47.912;12.308;2022-10-16T06:48:50;14.00;99.90
32660;DHT22;19064;47.912;12.308;2022-10-16T06:51:19;14.00;99.90
32660;DHT22;19064;47.912;12.308;2022-10-16T06:53:48;14.00;99.90
32660;DHT22;19064;47.912;12.308;2022-10-16T06:56:19;14.00;99.90
32660;DHT22;19064;47.912;12.308;2022-10-16T06:58:48;14.00;99.90
32660;DHT22;19064;47.912;12.308;2022-10-16T07:01:19;14.00;99.90
32660;DHT22;19064;47.912;12.308;2022-10-16T07:03:48;14.10;99.90
32660;DHT22;19064;47.912;12.308;2022-10-16T07:06:18;14.40;99.90
32660;DHT22;19064;47.912;12.308;2022-10-16T07:08:47;14.50;99.90
32660;DHT22;19064;47.912;12.308;2022-10-16T07:11:16;14.70;99.90
32660;DHT22;19064;47.912;12.308;2022-10-16T07:13:46;14.70;99.90
32660;DHT22;19064;47.912;12.308;2022-10-16T07:16:18;15.10;99.90
32660;DHT22;19064;47.912;12.308;2022-10-16T07:18:46;15.50;99.90
32660;DHT22;19064;47.912;12.308;2022-10-16T07:21:19;15.50;99.90
32660;DHT22;19064;47.912;12.308;2022-10-16T07:23:50;15.70;99.90
32660;DHT22;19064;47.912;12.308;2022-10-16T07:26:18;15.80;99.90
32660;DHT22;19064;47.912;12.308;2022-10-16T07:28:46;15.90;99.90
32660;DHT22;19064;47.912;12.308;2022-10-16T07:31:17;15.80;99.90
32660;DHT22;19064;47.912;12.308;2022-10-16T07:33:46;15.60;99.90
32660;DHT22;19064;47.912;12.308;2022-10-16T07:36:15;15.40;99.90
32660;DHT22;19064;47.912;12.308;2022-10-16T07:38:44;15.40;99.90
32660;DHT22;19064;47.912;12.308;2022-10-16T07:41:14;15.40;99.90
32660;DHT22;19064;47.912;12.308;2022-10-16T07:43:45;15.30;99.90
32660;DHT22;19064;47.912;12.308;2022-10-16T07:46:14;15.20;99.90
32660;DHT22;19064;47.912;12.308;2022-10-16T07:48:44;15.20;99.90
32660;DHT22;19064;47.912;12.308;2022-10-16T07:51:15;15.10;99.90
32660;DHT22;19064;47.912;12.308;2022-10-16T07:53:43;15.20;99.90
32660;DHT22;19064;47.912;12.308;2022-10-16T07:56:11;15.40;99.90
32660;DHT22;19064;47.912;12.308;2022-10-16T07:58:39;16.10;99.90
32660;DHT22;19064;47.912;12.308;2022-10-16T08:01:09;17.00;99.90
32660;DHT22;19064;47.912;12.308;2022-10-16T08:03:37;17.60;99.90
32660;DHT22;19064;47.912;12.308;2022-10-16T08:06:07;18.30;99.90
32660;DHT22;19064;47.912;12.308;2022-10-16T08:08:37;18.70;99.90
32660;DHT22;19064;47.912;12.308;2022-10-16T08:11:05;19.20;99.90
32660;DHT22;19064;47.912;12.308;2022-10-16T08:13:36;19.60;99.90
32660;DHT22;19064;47.912;12.308;2022-10-16T08:16:05;20.10;99.90
32660;DHT22;19064;47.912;12.308;2022-10-16T08:18:34;20.10;99.90
32660;DHT22;19064;47.912;12.308;2022-10-16T08:21:03;19.70;99.90
32660;DHT22;19064;47.912;12.308;2022-10-16T08:23:33;19.40;99.90
32660;DHT22;19064;47.912;12.308;2022-10-16T08:26:04;19.40;99.90
32660;DHT22;19064;47.912;12.308;2022-10-16T08:28:34;19.60;99.90
32660;DHT22;19064;47.912;12.308;2022-10-16T08:31:09;19.90;99.90
32660;DHT22;19064;47.912;12.308;2022-10-16T08:33:38;20.10;99.90
32660;DHT22;19064;47.912;12.308;2022-10-16T08:36:08;20.40;99.90
32660;DHT22;19064;47.912;12.308;2022-10-16T08:38:52;20.60;99.90
32660;DHT22;19064;47.912;12.308;2022-10-16T08:41:56;20.80;99.90
32660;DHT22;19064;47.912;12.308;2022-10-16T08:48:05;22.10;99.90
32660;DHT22;19064;47.912;12.308;2022-10-16T08:50:38;22.50;99.90
32660;DHT22;19064;47.912;12.308;2022-10-16T08:53:13;22.60;99.90
32660;DHT22;19064;47.912;12.308;2022-10-16T08:55:45;23.10;99.90
32660;DHT22;19064;47.912;12.308;2022-10-16T08:58:16;23.70;99.90
32660;DHT22;19064;47.912;12.308;2022-10-16T09:00:45;24.00;99.90
32660;DHT22;19064;47.912;12.308;2022-10-16T09:03:21;24.20;99.90
32660;DHT22;19064;47.912;12.308;2022-10-16T09:05:57;24.30;99.90
32660;DHT22;19064;47.912;12.308;2022-10-16T09:08:33;24.50;99.90
32660;DHT22;19064;47.912;12.308;2022-10-16T09:11:09;24.50;99.90
32660;DHT22;19064;47.912;12.308;2022-10-16T09:13:48;24.50;99.90
32660;DHT22;19064;47.912;12.308;2022-10-16T09:16:21;23.90;99.90
32660;DHT22;19064;47.912;12.308;2022-10-16T09:18:58;23.10;99.90
32660;DHT22;19064;47.912;12.308;2022-10-16T09:21:31;22.30;99.90
32660;DHT22;19064;47.912;12.308;2022-10-16T09:24:07;21.50;99.90
32660;DHT22;19064;47.912;12.308;2022-10-16T09:26:39;20.90;99.90
32660;DHT22;19064;47.912;12.308;2022-10-16T09:29:09;20.50;99.90
32660;DHT22;19064;47.912;12.308;2022-10-16T09:31:40;20.20;99.90
32660;DHT22;19064;47.912;12.308;2022-10-16T09:34:15;20.00;99.90
32660;DHT22;19064;47.912;12.308;2022-10-16T09:36:46;19.80;99.90
32660;DHT22;19064;47.912;12.308;2022-10-16T09:39:16;19.80;99.90
32660;DHT22;19064;47.912;12.308;2022-10-16T09:41:45;19.80;99.90
32660;DHT22;19064;47.912;12.308;2022-10-16T09:44:19;19.70;99.90
32660;DHT22;19064;47.912;12.308;2022-10-16T09:47:01;19.60;99.90
32660;DHT22;19064;47.912;12.308;2022-10-16T09:49:30;19.50;99.90
32660;DHT22;19064;47.912;12.308;2022-10-16T09:52:12;19.60;99.90
32660;DHT22;19064;47.912;12.308;2022-10-16T09:54:50;19.70;99.90
32660;DHT22;19064;47.912;12.308;2022-10-16T09:57:20;19.80;99.90
32660;DHT22;19064;47.912;12.308;2022-10-16T09:59:51;19.80;99.90
32660;DHT22;19064;47.912;12.308;2022-10-16T10:02:25;19.80;99.90
32660;DHT22;19064;47.912;12.308;2022-10-16T10:04:55;19.80;99.90
32660;DHT22;19064;47.912;12.308;2022-10-16T10:07:26;19.80;99.90
32660;DHT22;19064;47.912;12.308;2022-10-16T10:09:55;19.80;99.90
32660;DHT22;19064;47.912;12.308;2022-10-16T10:12:30;19.90;99.90
32660;DHT22;19064;47.912;12.308;2022-10-16T10:15:05;20.00;99.90
32660;DHT22;19064;47.912;12.308;2022-10-16T10:17:45;20.10;99.90
32660;DHT22;19064;47.912;12.308;2022-10-16T10:20:22;20.20;99.90
32660;DHT22;19064;47.912;12.308;2022-10-16T10:22:49;20.20;99.90
32660;DHT22;19064;47.912;12.308;2022-10-16T10:25:26;20.20;99.90
32660;DHT22;19064;47.912;12.308;2022-10-16T10:28:21;20.10;99.90
32660;DHT22;19064;47.912;12.308;2022-10-16T10:30:58;20.10;99.90
32660;DHT22;19064;47.912;12.308;2022-10-16T10:33:34;20.10;99.90
32660;DHT22;19064;47.912;12.308;2022-10-16T10:36:14;20.10;99.90
32660;DHT22;19064;47.912;12.308;2022-10-16T10:38:49;20.00;99.90
32660;DHT22;19064;47.912;12.308;2022-10-16T10:41:44;20.00;99.90
32660;DHT22;19064;47.912;12.308;2022-10-16T10:44:27;20.00;99.90
32660;DHT22;19064;47.912;12.308;2022-10-16T10:47:00;20.00;99.90
32660;DHT22;19064;47.912;12.308;2022-10-16T10:49:38;19.80;99.90
32660;DHT22;19064;47.912;12.308;2022-10-16T10:52:25;19.70;99.90
32660;DHT22;19064;47.912;12.308;2022-10-16T10:55:06;19.60;99.90
32660;DHT22;19064;47.912;12.308;2022-10-16T10:57:41;19.50;99.90
32660;DHT22;19064;47.912;12.308;2022-10-16T11:00:20;19.40;99.90
32660;DHT22;19064;47.912;12.308;2022-10-16T11:02:54;19.50;99.90
32660;DHT22;19064;47.912;12.308;2022-10-16T11:05:38;19.50;99.90
32660;DHT22;19064;47.912;12.308;2022-10-16T11:08:13;19.50;99.90
32660;DHT22;19064;47.912;12.308;2022-10-16T11:10:46;19.60;99.90
32660;DHT22;19064;47.912;12.308;2022-10-16T11:13:30;19.60;99.90
32660;DHT22;19064;47.912;12.308;2022-10-16T11:16:02;19.70;99.90
32660;DHT22;19064;47.912;12.308;2022-10-16T11:18:37;19.70;99.90
32660;DHT22;19064;47.912;12.308;2022-10-16T11:21:07;19.80;99.90
32660;DHT22;19064;47.912;12.308;2022-10-16T11:23:41;19.80;99.90
32660;DHT22;19064;47.912;12.308;2022-10-16T11:26:15;19.90;99.90
32660;DHT22;19064;47.912;12.308;2022-10-16T11:28:47;20.00;99.90
32660;DHT22;19064;47.912;12.308;2022-10-16T11:31:19;20.10;99.90
32660;DHT22;19064;47.912;12.308;2022-10-16T11:33:57;20.30;99.90
32660;DHT22;19064;47.912;12.308;2022-10-16T11:36:34;20.50;99.90
32660;DHT22;19064;47.912;12.308;2022-10-16T11:39:11;20.70;99.90
32660;DHT22;19064;47.912;12.308;2022-10-16T11:41:45;20.90;99.90
32660;DHT22;19064;47.912;12.308;2022-10-16T11:44:23;21.10;99.90
32660;DHT22;19064;47.912;12.308;2022-10-16T11:47:01;21.10;99.90
32660;DHT22;19064;47.912;12.308;2022-10-16T11:49:32;21.10;99.90
32660;DHT22;19064;47.912;12.308;2022-10-16T11:52:06;21.10;99.90
32660;DHT22;19064;47.912;12.308;2022-10-16T11:54:41;21.30;99.90
32660;DHT22;19064;47.912;12.308;2022-10-16T11:57:16;21.30;99.90
32660;DHT22;19064;47.912;12.308;2022-10-16T11:59:48;21.40;99.90
32660;DHT22;19064;47.912;12.308;2022-10-16T12:02:28;21.40;99.90
32660;DHT22;19064;47.912;12.308;2022-10-16T12:05:06;21.50;99.90
32660;DHT22;19064;47.912;12.308;2022-10-16T12:07:48;21.60;99.90
32660;DHT22;19064;47.912;12.308;2022-10-16T12:10:24;21.70;99.90
32660;DHT22;19064;47.912;12.308;2022-10-16T12:12:53;21.70;99.90
32660;DHT22;19064;47.912;12.308;2022-10-16T12:15:23;21.70;99.90
32660;DHT22;19064;47.912;12.308;2022-10-16T12:17:53;21.70;99.90
32660;DHT22;19064;47.912;12.308;2022-10-16T12:20:26;21.60;99.90
32660;DHT22;19064;47.912;12.308;2022-10-16T12:22:58;21.50;99.90
32660;DHT22;19064;47.912;12.308;2022-10-16T12:25:29;21.40;99.90
32660;DHT22;19064;47.912;12.308;2022-10-16T12:28:02;21.50;99.90
32660;DHT22;19064;47.912;12.308;2022-10-16T12:30:53;21.60;99.90
32660;DHT22;19064;47.912;12.308;2022-10-16T12:33:25;21.50;99.90
32660;DHT22;19064;47.912;12.308;2022-10-16T12:35:54;21.50;99.90
32660;DHT22;19064;47.912;12.308;2022-10-16T12:38:26;21.40;99.90
32660;DHT22;19064;47.912;12.308;2022-10-16T12:40:58;21.50;99.90
32660;DHT22;19064;47.912;12.308;2022-10-16T12:43:35;21.60;99.90
32660;DHT22;19064;47.912;12.308;2022-10-16T12:46:19;21.50;99.90
32660;DHT22;19064;47.912;12.308;2022-10-16T12:48:51;21.50;99.90
32660;DHT22;19064;47.912;12.308;2022-10-16T12:51:24;21.50;99.90
32660;DHT22;19064;47.912;12.308;2022-10-16T12:54:01;21.40;99.90
32660;DHT22;19064;47.912;12.308;2022-10-16T12:56:38;21.30;99.90
32660;DHT22;19064;47.912;12.308;2022-10-16T12:59:17;21.50;99.90
32660;DHT22;19064;47.912;12.308;2022-10-16T13:02:01;21.60;99.90
32660;DHT22;19064;47.912;12.308;2022-10-16T13:05:04;21.70;99.90
32660;DHT22;19064;47.912;12.308;2022-10-16T13:07:48;21.70;99.90
32660;DHT22;19064;47.912;12.308;2022-10-16T13:10:25;21.70;99.90
32660;DHT22;19064;47.912;12.308;2022-10-16T13:13:19;21.60;99.90
32660;DHT22;19064;47.912;12.308;2022-10-16T13:16:02;21.40;99.90
32660;DHT22;19064;47.912;12.308;2022-10-16T13:18:42;21.40;99.90
32660;DHT22;19064;47.912;12.308;2022-10-16T13:21:33;21.40;99.90
32660;DHT22;19064;47.912;12.308;2022-10-16T13:24:13;21.30;99.90
32660;DHT22;19064;47.912;12.308;2022-10-16T13:26:52;21.30;99.90
32660;DHT22;19064;47.912;12.308;2022-10-16T13:29:22;21.30;99.90
32660;DHT22;19064;47.912;12.308;2022-10-16T13:31:50;21.30;99.90
32660;DHT22;19064;47.912;12.308;2022-10-16T13:34:20;21.30;99.90
32660;DHT22;19064;47.912;12.308;2022-10-16T13:36:51;21.30;99.90
32660;DHT22;19064;47.912;12.308;2022-10-16T13:39:24;21.40;99.90
32660;DHT22;19064;47.912;12.308;2022-10-16T13:42:09;21.50;99.90
32660;DHT22;19064;47.912;12.308;2022-10-16T13:44:42;21.60;99.90
32660;DHT22;19064;47.912;12.308;2022-10-16T13:47:19;21.50;99.90
32660;DHT22;19064;47.912;12.308;2022-10-16T13:49:59;21.60;99.90
32660;DHT22;19064;47.912;12.308;2022-10-16T13:52:29;21.60;99.90
32660;DHT22;19064;47.912;12.308;2022-10-16T13:54:57;21.60;99.90
32660;DHT22;19064;47.912;12.308;2022-10-16T13:57:25;21.60;99.90
32660;DHT22;19064;47.912;12.308;2022-10-16T13:59:53;21.60;99.90
32660;DHT22;19064;47.912;12.308;2022-10-16T14:02:25;21.60;99.90
32660;DHT22;19064;47.912;12.308;2022-10-16T14:04:56;21.60;99.90
32660;DHT22;19064;47.912;12.308;2022-10-16T14:07:30;21.70;99.90
32660;DHT22;19064;47.912;12.308;2022-10-16T14:10:02;21.60;99.90
32660;DHT22;19064;47.912;12.308;2022-10-16T14:12:31;21.70;99.90
32660;DHT22;19064;47.912;12.308;2022-10-16T14:15:01;21.60;99.90
32660;DHT22;19064;47.912;12.308;2022-10-16T14:17:32;21.70;99.90
32660;DHT22;19064;47.912;12.308;2022-10-16T14:20:03;21.70;99.90
32660;DHT22;19064;47.912;12.308;2022-10-16T14:22:35;21.70;99.90
32660;DHT22;19064;47.912;12.308;2022-10-16T14:25:28;21.70;99.90
32660;DHT22;19064;47.912;12.308;2022-10-16T14:28:01;21.70;99.90
32660;DHT22;19064;47.912;12.308;2022-10-16T14:30:30;21.60;99.90
32660;DHT22;19064;47.912;12.308;2022-10-16T14:33:01;21.50;99.90
32660;DHT22;19064;47.912;12.308;2022-10-16T14:35:31;21.50;99.90
32660;DHT22;19064;47.912;12.308;2022-10-16T14:38:02;21.40;99.90
32660;DHT22;19064;47.912;12.308;2022-10-16T14:40:32;21.40;99.90
32660;DHT22;19064;47.912;12.308;2022-10-16T14:43:02;21.40;99.90
32660;DHT22;19064;47.912;12.308;2022-10-16T14:45:34;21.30;99.90
32660;DHT22;19064;47.912;12.308;2022-10-16T14:48:04;21.30;99.90
32660;DHT22;19064;47.912;12.308;2022-10-16T14:50:33;21.20;99.90
32660;DHT22;19064;47.912;12.308;2022-10-16T14:53:08;21.20;99.90
32660;DHT22;19064;47.912;12.308;2022-10-16T14:55:38;21.10;99.90
32660;DHT22;19064;47.912;12.308;2022-10-16T14:58:13;21.00;99.90
32660;DHT22;19064;47.912;12.308;2022-10-16T15:00:43;21.00;99.90
32660;DHT22;19064;47.912;12.308;2022-10-16T15:03:11;21.00;99.90
32660;DHT22;19064;47.912;12.308;2022-10-16T15:05:40;20.90;99.90
32660;DHT22;19064;47.912;12.308;2022-10-16T15:08:10;20.90;99.90
32660;DHT22;19064;47.912;12.308;2022-10-16T15:10:40;20.90;99.90
32660;DHT22;19064;47.912;12.308;2022-10-16T15:13:11;20.90;99.90
32660;DHT22;19064;47.912;12.308;2022-10-16T15:15:40;20.80;99.90
32660;DHT22;19064;47.912;12.308;2022-10-16T15:18:08;20.80;99.90
32660;DHT22;19064;47.912;12.308;2022-10-16T15:20:38;20.80;99.90
32660;DHT22;19064;47.912;12.308;2022-10-16T15:23:13;20.70;99.90
32660;DHT22;19064;47.912;12.308;2022-10-16T15:25:43;20.70;99.90
32660;DHT22;19064;47.912;12.308;2022-10-16T15:28:15;20.60;99.90
32660;DHT22;19064;47.912;12.308;2022-10-16T15:30:44;20.50;99.90
32660;DHT22;19064;47.912;12.308;2022-10-16T15:33:14;20.40;99.90
32660;DHT22;19064;47.912;12.308;2022-10-16T15:35:46;20.40;99.90
32660;DHT22;19064;47.912;12.308;2022-10-16T15:38:21;20.30;99.90
32660;DHT22;19064;47.912;12.308;2022-10-16T15:40:49;20.20;99.90
32660;DHT22;19064;47.912;12.308;2022-10-16T15:43:16;20.10;99.90
32660;DHT22;19064;47.912;12.308;2022-10-16T15:45:43;20.00;99.90
32660;DHT22;19064;47.912;12.308;2022-10-16T15:48:11;19.80;99.90